sensor_id;sensor_type;location;lat;lon;timestamp;P1;durP1;ratioP1;P2;durP2;ratioP2
32639;SDS011;19049;52.524;11.468;2023-05-13T00:00:08;2.67;;;1.70;;
32639;SDS011;19049;52.524;11.468;2023-05-13T00:02:35;3.47;;;1.80;;
32639;SDS011;19049;52.524;11.468;2023-05-13T00:05:00;2.07;;;1.80;;
32639;SDS011;19049;52.524;11.468;2023-05-13T00:07:26;2.00;;;1.67;;
32639;SDS011;19049;52.524;11.468;2023-05-13T00:09:52;3.57;;;1.77;;
32639;SDS011;19049;52.524;11.468;2023-05-13T00:12:17;2.90;;;2.00;;
32639;SDS011;19049;52.524;11.468;2023-05-13T00:14:43;1.60;;;1.43;;
32639;SDS011;19049;52.524;11.468;2023-05-13T00:17:09;2.30;;;1.93;;
32639;SDS011;19049;52.524;11.468;2023-05-13T00:19:35;2.60;;;1.83;;
32639;SDS011;19049;52.524;11.468;2023-05-13T00:22:00;2.63;;;1.60;;
32639;SDS011;19049;52.524;11.468;2023-05-13T00:24:27;2.47;;;1.67;;
32639;SDS011;19049;52.524;11.468;2023-05-13T00:26:52;4.10;;;2.10;;
32639;SDS011;19049;52.524;11.468;2023-05-13T00:29:18;1.70;;;1.60;;
32639;SDS011;19049;52.524;11.468;2023-05-13T00:31:44;2.50;;;2.10;;
32639;SDS011;19049;52.524;11.468;2023-05-13T00:34:09;2.03;;;1.50;;
32639;SDS011;19049;52.524;11.468;2023-05-13T00:36:35;3.50;;;1.50;;
32639;SDS011;19049;52.524;11.468;2023-05-13T00:39:01;2.30;;;1.90;;
32639;SDS011;19049;52.524;11.468;2023-05-13T00:41:27;1.80;;;1.70;;
32639;SDS011;19049;52.524;11.468;2023-05-13T00:43:53;4.70;;;2.03;;
32639;SDS011;19049;52.524;11.468;2023-05-13T00:46:20;2.17;;;1.63;;
32639;SDS011;19049;52.524;11.468;2023-05-13T00:48:46;3.20;;;1.70;;
32639;SDS011;19049;52.524;11.468;2023-05-13T00:51:12;2.67;;;1.80;;
32639;SDS011;19049;52.524;11.468;2023-05-13T00:53:38;2.83;;;1.93;;
32639;SDS011;19049;52.524;11.468;2023-05-13T00:56:05;3.00;;;2.20;;
32639;SDS011;19049;52.524;11.468;2023-05-13T00:58:30;2.43;;;2.10;;
32639;SDS011;19049;52.524;11.468;2023-05-13T01:01:01;2.10;;;1.80;;
32639;SDS011;19049;52.524;11.468;2023-05-13T01:06:09;2.63;;;1.93;;
32639;SDS011;19049;52.524;11.468;2023-05-13T01:09:06;2.00;;;1.63;;
32639;SDS011;19049;52.524;11.468;2023-05-13T01:11:39;2.00;;;1.80;;
32639;SDS011;19049;52.524;11.468;2023-05-13T01:14:08;1.90;;;1.80;;
32639;SDS011;19049;52.524;11.468;2023-05-13T01:17:08;2.57;;;1.73;;
32639;SDS011;19049;52.524;11.468;2023-05-13T01:22:10;2.57;;;1.80;;
32639;SDS011;19049;52.524;11.468;2023-05-13T01:24:36;3.17;;;2.23;;
32639;SDS011;19049;52.524;11.468;2023-05-13T01:27:02;1.93;;;1.70;;
32639;SDS011;19049;52.524;11.468;2023-05-13T01:29:28;1.60;;;1.50;;
32639;SDS011;19049;52.524;11.468;2023-05-13T01:31:54;1.70;;;1.60;;
32639;SDS011;19049;52.524;11.468;2023-05-13T01:34:21;2.77;;;1.80;;
32639;SDS011;19049;52.524;11.468;2023-05-13T01:36:50;1.80;;;1.53;;
32639;SDS011;19049;52.524;11.468;2023-05-13T01:39:16;2.33;;;2.13;;
32639;SDS011;19049;52.524;11.468;2023-05-13T01:41:43;2.07;;;1.63;;
32639;SDS011;19049;52.524;11.468;2023-05-13T01:44:09;2.20;;;1.90;;
32639;SDS011;19049;52.524;11.468;2023-05-13T01:46:36;2.47;;;1.60;;
32639;SDS011;19049;52.524;11.468;2023-05-13T01:49:02;4.80;;;2.13;;
32639;SDS011;19049;52.524;11.468;2023-05-13T01:51:28;2.67;;;1.83;;
32639;SDS011;19049;52.524;11.468;2023-05-13T01:53:55;2.40;;;2.07;;
32639;SDS011;19049;52.524;11.468;2023-05-13T01:56:21;3.83;;;1.80;;
32639;SDS011;19049;52.524;11.468;2023-05-13T01:58:47;1.47;;;1.37;;
32639;SDS011;19049;52.524;11.468;2023-05-13T02:01:13;2.20;;;1.80;;
32639;SDS011;19049;52.524;11.468;2023-05-13T02:03:38;2.07;;;1.70;;
32639;SDS011;19049;52.524;11.468;2023-05-13T02:06:04;2.03;;;1.60;;
32639;SDS011;19049;52.524;11.468;2023-05-13T02:08:30;1.90;;;1.50;;
32639;SDS011;19049;52.524;11.468;2023-05-13T02:10:56;6.27;;;1.60;;
32639;SDS011;19049;52.524;11.468;2023-05-13T02:13:23;1.70;;;1.60;;
32639;SDS011;19049;52.524;11.468;2023-05-13T02:15:50;2.53;;;1.60;;
32639;SDS011;19049;52.524;11.468;2023-05-13T02:18:15;2.27;;;1.70;;
32639;SDS011;19049;52.524;11.468;2023-05-13T02:20:41;1.93;;;1.43;;
32639;SDS011;19049;52.524;11.468;2023-05-13T02:23:06;2.80;;;2.07;;
32639;SDS011;19049;52.524;11.468;2023-05-13T02:25:32;2.07;;;1.60;;
32639;SDS011;19049;52.524;11.468;2023-05-13T02:27:58;2.00;;;1.73;;
32639;SDS011;19049;52.524;11.468;2023-05-13T02:30:24;2.27;;;1.80;;
32639;SDS011;19049;52.524;11.468;2023-05-13T02:32:53;1.90;;;1.70;;
32639;SDS011;19049;52.524;11.468;2023-05-13T02:35:20;1.87;;;1.70;;
32639;SDS011;19049;52.524;11.468;2023-05-13T02:37:46;1.63;;;1.53;;
32639;SDS011;19049;52.524;11.468;2023-05-13T02:40:13;4.67;;;2.00;;
32639;SDS011;19049;52.524;11.468;2023-05-13T02:42:38;2.60;;;1.73;;
32639;SDS011;19049;52.524;11.468;2023-05-13T02:45:05;1.70;;;1.53;;
32639;SDS011;19049;52.524;11.468;2023-05-13T02:47:31;3.10;;;1.73;;
32639;SDS011;19049;52.524;11.468;2023-05-13T02:49:57;2.03;;;1.60;;
32639;SDS011;19049;52.524;11.468;2023-05-13T02:52:22;1.70;;;1.60;;
32639;SDS011;19049;52.524;11.468;2023-05-13T02:54:48;2.33;;;1.50;;
32639;SDS011;19049;52.524;11.468;2023-05-13T02:57:14;2.33;;;1.53;;
32639;SDS011;19049;52.524;11.468;2023-05-13T02:59:39;2.07;;;1.60;;
32639;SDS011;19049;52.524;11.468;2023-05-13T03:02:05;2.87;;;1.60;;
32639;SDS011;19049;52.524;11.468;2023-05-13T03:04:30;2.87;;;1.70;;
32639;SDS011;19049;52.524;11.468;2023-05-13T03:06:56;2.67;;;1.60;;
32639;SDS011;19049;52.524;11.468;2023-05-13T03:09:22;2.07;;;1.87;;
32639;SDS011;19049;52.524;11.468;2023-05-13T03:11:47;1.60;;;1.50;;
32639;SDS011;19049;52.524;11.468;2023-05-13T03:14:13;2.10;;;1.70;;
32639;SDS011;19049;52.524;11.468;2023-05-13T03:16:39;2.67;;;2.00;;
32639;SDS011;19049;52.524;11.468;2023-05-13T03:19:04;2.13;;;1.67;;
32639;SDS011;19049;52.524;11.468;2023-05-13T03:21:30;1.60;;;1.50;;
32639;SDS011;19049;52.524;11.468;2023-05-13T03:23:55;2.20;;;2.00;;
32639;SDS011;19049;52.524;11.468;2023-05-13T03:26:21;1.80;;;1.57;;
32639;SDS011;19049;52.524;11.468;2023-05-13T03:28:47;2.53;;;2.00;;
32639;SDS011;19049;52.524;11.468;2023-05-13T03:31:12;3.13;;;1.90;;
32639;SDS011;19049;52.524;11.468;2023-05-13T03:33:38;2.23;;;1.80;;
32639;SDS011;19049;52.524;11.468;2023-05-13T03:36:03;2.70;;;1.53;;
32639;SDS011;19049;52.524;11.468;2023-05-13T03:38:30;2.67;;;1.77;;
32639;SDS011;19049;52.524;11.468;2023-05-13T03:40:55;2.33;;;1.80;;
32639;SDS011;19049;52.524;11.468;2023-05-13T03:43:21;2.00;;;1.80;;
32639;SDS011;19049;52.524;11.468;2023-05-13T03:45:47;2.33;;;2.10;;
32639;SDS011;19049;52.524;11.468;2023-05-13T03:48:14;4.10;;;1.43;;
32639;SDS011;19049;52.524;11.468;2023-05-13T03:50:40;1.83;;;1.43;;
32639;SDS011;19049;52.524;11.468;2023-05-13T03:53:05;2.57;;;1.70;;
32639;SDS011;19049;52.524;11.468;2023-05-13T03:55:31;2.03;;;1.83;;
32639;SDS011;19049;52.524;11.468;2023-05-13T03:57:57;2.20;;;1.90;;
32639;SDS011;19049;52.524;11.468;2023-05-13T04:00:23;1.80;;;1.63;;
32639;SDS011;19049;52.524;11.468;2023-05-13T04:02:48;2.83;;;1.90;;
32639;SDS011;19049;52.524;11.468;2023-05-13T04:05:14;1.70;;;1.60;;
32639;SDS011;19049;52.524;11.468;2023-05-13T04:07:40;2.37;;;1.80;;
32639;SDS011;19049;52.524;11.468;2023-05-13T04:10:06;2.37;;;2.17;;
32639;SDS011;19049;52.524;11.468;2023-05-13T04:12:32;2.20;;;1.73;;
32639;SDS011;19049;52.524;11.468;2023-05-13T04:14:58;4.60;;;1.70;;
32639;SDS011;19049;52.524;11.468;2023-05-13T04:17:24;2.60;;;1.90;;
32639;SDS011;19049;52.524;11.468;2023-05-13T04:19:53;2.03;;;1.83;;
32639;SDS011;19049;52.524;11.468;2023-05-13T04:22:19;1.80;;;1.70;;
32639;SDS011;19049;52.524;11.468;2023-05-13T04:24:45;2.97;;;1.63;;
32639;SDS011;19049;52.524;11.468;2023-05-13T04:27:11;1.80;;;1.70;;
32639;SDS011;19049;52.524;11.468;2023-05-13T04:29:37;3.73;;;2.00;;
32639;SDS011;19049;52.524;11.468;2023-05-13T04:32:03;2.17;;;1.90;;
32639;SDS011;19049;52.524;11.468;2023-05-13T04:34:28;2.00;;;1.80;;
32639;SDS011;19049;52.524;11.468;2023-05-13T04:36:54;3.17;;;2.23;;
32639;SDS011;19049;52.524;11.468;2023-05-13T04:39:20;2.57;;;2.30;;
32639;SDS011;19049;52.524;11.468;2023-05-13T04:41:45;2.30;;;2.10;;
32639;SDS011;19049;52.524;11.468;2023-05-13T04:44:11;2.20;;;2.00;;
32639;SDS011;19049;52.524;11.468;2023-05-13T04:46:37;2.33;;;1.77;;
32639;SDS011;19049;52.524;11.468;2023-05-13T04:49:04;2.33;;;2.00;;
32639;SDS011;19049;52.524;11.468;2023-05-13T04:51:30;2.50;;;2.30;;
32639;SDS011;19049;52.524;11.468;2023-05-13T04:53:56;2.93;;;2.63;;
32639;SDS011;19049;52.524;11.468;2023-05-13T04:56:22;3.60;;;2.27;;
32639;SDS011;19049;52.524;11.468;2023-05-13T04:58:48;2.67;;;2.37;;
32639;SDS011;19049;52.524;11.468;2023-05-13T05:01:14;2.37;;;2.17;;
32639;SDS011;19049;52.524;11.468;2023-05-13T05:03:40;2.10;;;1.83;;
32639;SDS011;19049;52.524;11.468;2023-05-13T05:06:06;4.03;;;2.70;;
32639;SDS011;19049;52.524;11.468;2023-05-13T05:08:31;2.80;;;2.53;;
32639;SDS011;19049;52.524;11.468;2023-05-13T05:10:58;3.30;;;2.67;;
32639;SDS011;19049;52.524;11.468;2023-05-13T05:13:24;2.67;;;2.47;;
32639;SDS011;19049;52.524;11.468;2023-05-13T05:15:50;3.00;;;2.80;;
32639;SDS011;19049;52.524;11.468;2023-05-13T05:18:16;2.93;;;2.63;;
32639;SDS011;19049;52.524;11.468;2023-05-13T05:20:41;3.17;;;2.40;;
32639;SDS011;19049;52.524;11.468;2023-05-13T05:23:07;2.97;;;2.57;;
32639;SDS011;19049;52.524;11.468;2023-05-13T05:25:34;3.43;;;2.60;;
32639;SDS011;19049;52.524;11.468;2023-05-13T05:28:00;3.73;;;2.60;;
32639;SDS011;19049;52.524;11.468;2023-05-13T05:30:29;4.10;;;2.90;;
32639;SDS011;19049;52.524;11.468;2023-05-13T05:32:56;3.93;;;2.57;;
32639;SDS011;19049;52.524;11.468;2023-05-13T05:35:22;5.60;;;2.53;;
32639;SDS011;19049;52.524;11.468;2023-05-13T05:37:48;3.67;;;2.70;;
32639;SDS011;19049;52.524;11.468;2023-05-13T05:40:14;4.30;;;2.73;;
32639;SDS011;19049;52.524;11.468;2023-05-13T05:42:39;5.40;;;2.40;;
32639;SDS011;19049;52.524;11.468;2023-05-13T05:45:05;3.67;;;2.97;;
32639;SDS011;19049;52.524;11.468;2023-05-13T05:47:31;3.63;;;2.80;;
32639;SDS011;19049;52.524;11.468;2023-05-13T05:49:57;3.93;;;3.40;;
32639;SDS011;19049;52.524;11.468;2023-05-13T05:52:23;5.30;;;3.43;;
32639;SDS011;19049;52.524;11.468;2023-05-13T05:54:49;3.90;;;3.40;;
32639;SDS011;19049;52.524;11.468;2023-05-13T05:57:14;4.00;;;3.00;;
32639;SDS011;19049;52.524;11.468;2023-05-13T05:59:40;5.53;;;3.00;;
32639;SDS011;19049;52.524;11.468;2023-05-13T06:02:06;5.63;;;3.33;;
32639;SDS011;19049;52.524;11.468;2023-05-13T06:04:32;3.93;;;3.27;;
32639;SDS011;19049;52.524;11.468;2023-05-13T06:06:58;4.00;;;2.97;;
32639;SDS011;19049;52.524;11.468;2023-05-13T06:09:23;3.17;;;2.87;;
32639;SDS011;19049;52.524;11.468;2023-05-13T06:11:49;3.50;;;2.97;;
32639;SDS011;19049;52.524;11.468;2023-05-13T06:14:15;4.33;;;2.83;;
32639;SDS011;19049;52.524;11.468;2023-05-13T06:16:41;4.43;;;3.10;;
32639;SDS011;19049;52.524;11.468;2023-05-13T06:19:07;4.03;;;2.97;;
32639;SDS011;19049;52.524;11.468;2023-05-13T06:21:32;3.90;;;3.50;;
32639;SDS011;19049;52.524;11.468;2023-05-13T06:23:58;5.40;;;3.23;;
32639;SDS011;19049;52.524;11.468;2023-05-13T06:26:26;7.37;;;3.50;;
32639;SDS011;19049;52.524;11.468;2023-05-13T06:28:53;3.70;;;2.70;;
32639;SDS011;19049;52.524;11.468;2023-05-13T06:31:19;3.57;;;2.90;;
32639;SDS011;19049;52.524;11.468;2023-05-13T06:33:45;6.00;;;2.67;;
32639;SDS011;19049;52.524;11.468;2023-05-13T06:36:11;4.97;;;2.90;;
32639;SDS011;19049;52.524;11.468;2023-05-13T06:38:37;4.63;;;2.67;;
32639;SDS011;19049;52.524;11.468;2023-05-13T06:41:02;5.87;;;3.20;;
32639;SDS011;19049;52.524;11.468;2023-05-13T06:43:28;4.07;;;2.83;;
32639;SDS011;19049;52.524;11.468;2023-05-13T06:45:54;4.07;;;2.90;;
32639;SDS011;19049;52.524;11.468;2023-05-13T06:48:19;3.30;;;3.00;;
32639;SDS011;19049;52.524;11.468;2023-05-13T06:50:45;4.80;;;3.40;;
32639;SDS011;19049;52.524;11.468;2023-05-13T06:53:11;5.13;;;3.47;;
32639;SDS011;19049;52.524;11.468;2023-05-13T06:55:37;5.50;;;3.00;;
32639;SDS011;19049;52.524;11.468;2023-05-13T06:58:06;3.73;;;3.30;;
32639;SDS011;19049;52.524;11.468;2023-05-13T07:00:35;4.53;;;3.17;;
32639;SDS011;19049;52.524;11.468;2023-05-13T07:03:04;5.90;;;3.20;;
32639;SDS011;19049;52.524;11.468;2023-05-13T07:05:31;3.97;;;2.77;;
32639;SDS011;19049;52.524;11.468;2023-05-13T07:07:57;4.13;;;3.23;;
32639;SDS011;19049;52.524;11.468;2023-05-13T07:10:23;5.57;;;3.87;;
32639;SDS011;19049;52.524;11.468;2023-05-13T07:12:49;5.47;;;3.93;;
32639;SDS011;19049;52.524;11.468;2023-05-13T07:15:15;4.93;;;3.60;;
32639;SDS011;19049;52.524;11.468;2023-05-13T07:17:41;3.77;;;2.87;;
32639;SDS011;19049;52.524;11.468;2023-05-13T07:20:07;3.87;;;3.07;;
32639;SDS011;19049;52.524;11.468;2023-05-13T07:22:34;5.57;;;3.20;;
32639;SDS011;19049;52.524;11.468;2023-05-13T07:25:00;3.13;;;2.60;;
32639;SDS011;19049;52.524;11.468;2023-05-13T07:27:25;4.27;;;3.07;;
32639;SDS011;19049;52.524;11.468;2023-05-13T07:29:51;5.00;;;3.30;;
32639;SDS011;19049;52.524;11.468;2023-05-13T07:32:17;6.13;;;3.73;;
32639;SDS011;19049;52.524;11.468;2023-05-13T07:34:43;4.17;;;3.00;;
32639;SDS011;19049;52.524;11.468;2023-05-13T07:37:09;5.33;;;3.83;;
32639;SDS011;19049;52.524;11.468;2023-05-13T07:39:35;3.83;;;3.10;;
32639;SDS011;19049;52.524;11.468;2023-05-13T07:42:02;4.27;;;3.30;;
32639;SDS011;19049;52.524;11.468;2023-05-13T07:44:27;3.47;;;3.13;;
32639;SDS011;19049;52.524;11.468;2023-05-13T07:46:54;3.70;;;3.03;;
32639;SDS011;19049;52.524;11.468;2023-05-13T07:49:20;3.83;;;2.90;;
32639;SDS011;19049;52.524;11.468;2023-05-13T07:51:45;2.90;;;2.60;;
32639;SDS011;19049;52.524;11.468;2023-05-13T07:54:11;3.83;;;2.97;;
32639;SDS011;19049;52.524;11.468;2023-05-13T07:56:37;3.70;;;2.90;;
32639;SDS011;19049;52.524;11.468;2023-05-13T07:59:03;3.80;;;2.87;;
32639;SDS011;19049;52.524;11.468;2023-05-13T08:01:29;4.00;;;3.20;;
32639;SDS011;19049;52.524;11.468;2023-05-13T08:03:54;5.93;;;3.03;;
32639;SDS011;19049;52.524;11.468;2023-05-13T08:06:20;3.70;;;3.03;;
32639;SDS011;19049;52.524;11.468;2023-05-13T08:08:46;4.30;;;2.87;;
32639;SDS011;19049;52.524;11.468;2023-05-13T08:11:12;5.17;;;3.47;;
32639;SDS011;19049;52.524;11.468;2023-05-13T08:13:38;3.70;;;3.00;;
32639;SDS011;19049;52.524;11.468;2023-05-13T08:16:04;5.67;;;2.80;;
32639;SDS011;19049;52.524;11.468;2023-05-13T08:18:31;3.03;;;2.60;;
32639;SDS011;19049;52.524;11.468;2023-05-13T08:20:57;4.10;;;2.90;;
32639;SDS011;19049;52.524;11.468;2023-05-13T08:23:22;3.03;;;2.80;;
32639;SDS011;19049;52.524;11.468;2023-05-13T08:25:49;3.90;;;2.90;;
32639;SDS011;19049;52.524;11.468;2023-05-13T08:28:15;7.23;;;2.50;;
32639;SDS011;19049;52.524;11.468;2023-05-13T08:30:41;2.60;;;2.40;;
32639;SDS011;19049;52.524;11.468;2023-05-13T08:33:08;4.03;;;2.73;;
32639;SDS011;19049;52.524;11.468;2023-05-13T08:35:35;3.53;;;2.47;;
32639;SDS011;19049;52.524;11.468;2023-05-13T08:38:01;3.40;;;2.30;;
32639;SDS011;19049;52.524;11.468;2023-05-13T08:40:31;4.63;;;2.90;;
32639;SDS011;19049;52.524;11.468;2023-05-13T08:42:57;3.90;;;2.70;;
32639;SDS011;19049;52.524;11.468;2023-05-13T08:45:28;3.43;;;2.53;;
32639;SDS011;19049;52.524;11.468;2023-05-13T08:47:56;6.33;;;2.93;;
32639;SDS011;19049;52.524;11.468;2023-05-13T08:50:25;6.03;;;2.70;;
32639;SDS011;19049;52.524;11.468;2023-05-13T08:52:52;2.43;;;2.23;;
32639;SDS011;19049;52.524;11.468;2023-05-13T08:55:18;2.57;;;2.37;;
32639;SDS011;19049;52.524;11.468;2023-05-13T08:57:44;2.97;;;2.20;;
32639;SDS011;19049;52.524;11.468;2023-05-13T09:00:10;5.40;;;2.47;;
32639;SDS011;19049;52.524;11.468;2023-05-13T09:02:36;3.23;;;2.20;;
32639;SDS011;19049;52.524;11.468;2023-05-13T09:05:05;3.10;;;2.17;;
32639;SDS011;19049;52.524;11.468;2023-05-13T09:07:32;3.47;;;2.30;;
32639;SDS011;19049;52.524;11.468;2023-05-13T09:09:58;3.17;;;2.00;;
32639;SDS011;19049;52.524;11.468;2023-05-13T09:15:15;2.50;;;2.30;;
32639;SDS011;19049;52.524;11.468;2023-05-13T09:17:43;3.60;;;2.10;;
32639;SDS011;19049;52.524;11.468;2023-05-13T09:20:13;3.10;;;2.50;;
32639;SDS011;19049;52.524;11.468;2023-05-13T09:22:50;5.70;;;2.17;;
32639;SDS011;19049;52.524;11.468;2023-05-13T09:25:27;4.10;;;2.00;;
32639;SDS011;19049;52.524;11.468;2023-05-13T09:27:54;2.17;;;2.00;;
32639;SDS011;19049;52.524;11.468;2023-05-13T09:30:24;4.10;;;2.30;;
32639;SDS011;19049;52.524;11.468;2023-05-13T09:33:17;4.83;;;2.30;;
32639;SDS011;19049;52.524;11.468;2023-05-13T09:35:50;2.47;;;2.03;;
32639;SDS011;19049;52.524;11.468;2023-05-13T09:38:20;2.60;;;2.40;;
32639;SDS011;19049;52.524;11.468;2023-05-13T09:40:51;5.33;;;2.67;;
32639;SDS011;19049;52.524;11.468;2023-05-13T09:43:18;3.30;;;2.37;;
32639;SDS011;19049;52.524;11.468;2023-05-13T09:45:45;2.53;;;2.07;;
32639;SDS011;19049;52.524;11.468;2023-05-13T09:48:10;2.10;;;1.90;;
32639;SDS011;19049;52.524;11.468;2023-05-13T09:50:47;2.77;;;1.90;;
32639;SDS011;19049;52.524;11.468;2023-05-13T09:53:14;3.33;;;2.10;;
32639;SDS011;19049;52.524;11.468;2023-05-13T09:55:47;1.73;;;1.50;;
32639;SDS011;19049;52.524;11.468;2023-05-13T09:58:13;3.47;;;2.00;;
32639;SDS011;19049;52.524;11.468;2023-05-13T10:00:40;2.93;;;2.00;;
32639;SDS011;19049;52.524;11.468;2023-05-13T10:03:07;2.17;;;1.97;;
32639;SDS011;19049;52.524;11.468;2023-05-13T10:05:34;4.87;;;2.13;;
32639;SDS011;19049;52.524;11.468;2023-05-13T10:08:00;2.27;;;1.90;;
32639;SDS011;19049;52.524;11.468;2023-05-13T10:10:27;2.80;;;2.20;;
32639;SDS011;19049;52.524;11.468;2023-05-13T10:12:54;2.43;;;1.70;;
32639;SDS011;19049;52.524;11.468;2023-05-13T10:15:27;2.23;;;1.73;;
32639;SDS011;19049;52.524;11.468;2023-05-13T10:17:53;2.03;;;1.90;;
32639;SDS011;19049;52.524;11.468;2023-05-13T10:20:19;3.90;;;2.10;;
32639;SDS011;19049;52.524;11.468;2023-05-13T10:22:46;2.90;;;2.33;;
32639;SDS011;19049;52.524;11.468;2023-05-13T10:25:13;2.67;;;1.80;;
32639;SDS011;19049;52.524;11.468;2023-05-13T10:27:39;2.30;;;2.10;;
32639;SDS011;19049;52.524;11.468;2023-05-13T10:30:07;3.30;;;1.93;;
32639;SDS011;19049;52.524;11.468;2023-05-13T10:32:33;2.70;;;2.50;;
32639;SDS011;19049;52.524;11.468;2023-05-13T10:43:22;2.63;;;2.07;;
32639;SDS011;19049;52.524;11.468;2023-05-13T10:45:55;4.63;;;2.30;;
32639;SDS011;19049;52.524;11.468;2023-05-13T10:48:22;2.60;;;1.93;;
32639;SDS011;19049;52.524;11.468;2023-05-13T10:50:53;4.47;;;1.80;;
32639;SDS011;19049;52.524;11.468;2023-05-13T10:53:23;3.30;;;2.33;;
32639;SDS011;19049;52.524;11.468;2023-05-13T10:55:52;2.80;;;1.93;;
32639;SDS011;19049;52.524;11.468;2023-05-13T10:58:29;2.07;;;1.80;;
32639;SDS011;19049;52.524;11.468;2023-05-13T11:01:14;2.03;;;1.83;;
32639;SDS011;19049;52.524;11.468;2023-05-13T11:03:50;1.87;;;1.50;;
32639;SDS011;19049;52.524;11.468;2023-05-13T11:06:19;2.40;;;1.60;;
32639;SDS011;19049;52.524;11.468;2023-05-13T11:08:47;1.90;;;1.70;;
32639;SDS011;19049;52.524;11.468;2023-05-13T11:13:54;6.50;;;1.77;;
32639;SDS011;19049;52.524;11.468;2023-05-13T11:16:27;3.63;;;2.30;;
32639;SDS011;19049;52.524;11.468;2023-05-13T11:18:52;2.07;;;1.83;;
32639;SDS011;19049;52.524;11.468;2023-05-13T11:21:34;2.93;;;1.90;;
32639;SDS011;19049;52.524;11.468;2023-05-13T11:24:03;2.60;;;1.73;;
32639;SDS011;19049;52.524;11.468;2023-05-13T11:27:11;2.60;;;2.03;;
32639;SDS011;19049;52.524;11.468;2023-05-13T11:29:33;2.77;;;2.00;;
32639;SDS011;19049;52.524;11.468;2023-05-13T11:32:00;2.23;;;2.03;;
32639;SDS011;19049;52.524;11.468;2023-05-13T11:34:28;2.23;;;1.93;;
32639;SDS011;19049;52.524;11.468;2023-05-13T11:39:29;1.50;;;1.37;;
32639;SDS011;19049;52.524;11.468;2023-05-13T11:41:55;1.73;;;1.63;;
32639;SDS011;19049;52.524;11.468;2023-05-13T11:44:22;1.97;;;1.73;;
32639;SDS011;19049;52.524;11.468;2023-05-13T11:46:50;2.70;;;2.10;;
32639;SDS011;19049;52.524;11.468;2023-05-13T11:49:30;3.17;;;2.00;;
32639;SDS011;19049;52.524;11.468;2023-05-13T11:52:07;1.90;;;1.70;;
32639;SDS011;19049;52.524;11.468;2023-05-13T11:59:59;2.77;;;1.50;;
32639;SDS011;19049;52.524;11.468;2023-05-13T12:02:29;1.97;;;1.77;;
32639;SDS011;19049;52.524;11.468;2023-05-13T12:04:59;2.33;;;1.60;;
32639;SDS011;19049;52.524;11.468;2023-05-13T12:07:26;2.17;;;1.97;;
32639;SDS011;19049;52.524;11.468;2023-05-13T12:09:52;3.30;;;2.13;;
32639;SDS011;19049;52.524;11.468;2023-05-13T12:12:20;2.40;;;2.13;;
32639;SDS011;19049;52.524;11.468;2023-05-13T12:14:46;2.37;;;1.90;;
32639;SDS011;19049;52.524;11.468;2023-05-13T12:17:16;2.23;;;1.60;;
32639;SDS011;19049;52.524;11.468;2023-05-13T12:20:03;1.63;;;1.50;;
32639;SDS011;19049;52.524;11.468;2023-05-13T12:22:35;1.90;;;1.70;;
32639;SDS011;19049;52.524;11.468;2023-05-13T12:31:00;4.70;;;2.30;;
32639;SDS011;19049;52.524;11.468;2023-05-13T12:33:27;3.40;;;2.20;;
32639;SDS011;19049;52.524;11.468;2023-05-13T12:36:16;1.87;;;1.60;;
32639;SDS011;19049;52.524;11.468;2023-05-13T12:41:22;4.33;;;2.70;;
32639;SDS011;19049;52.524;11.468;2023-05-13T12:43:50;2.90;;;2.60;;
32639;SDS011;19049;52.524;11.468;2023-05-13T12:46:26;2.70;;;2.20;;
32639;SDS011;19049;52.524;11.468;2023-05-13T12:48:56;2.67;;;2.47;;
32639;SDS011;19049;52.524;11.468;2023-05-13T12:51:23;6.03;;;2.90;;
32639;SDS011;19049;52.524;11.468;2023-05-13T12:53:48;3.67;;;2.50;;
32639;SDS011;19049;52.524;11.468;2023-05-13T12:56:14;4.23;;;2.67;;
32639;SDS011;19049;52.524;11.468;2023-05-13T12:58:40;2.60;;;2.40;;
32639;SDS011;19049;52.524;11.468;2023-05-13T13:01:06;3.10;;;2.40;;
32639;SDS011;19049;52.524;11.468;2023-05-13T13:03:32;5.77;;;2.57;;
32639;SDS011;19049;52.524;11.468;2023-05-13T13:05:57;3.80;;;2.80;;
32639;SDS011;19049;52.524;11.468;2023-05-13T13:08:23;2.97;;;2.60;;
32639;SDS011;19049;52.524;11.468;2023-05-13T13:10:49;2.67;;;2.43;;
32639;SDS011;19049;52.524;11.468;2023-05-13T13:13:15;3.17;;;2.70;;
32639;SDS011;19049;52.524;11.468;2023-05-13T13:15:40;2.60;;;2.40;;
32639;SDS011;19049;52.524;11.468;2023-05-13T13:18:06;4.83;;;2.33;;
32639;SDS011;19049;52.524;11.468;2023-05-13T13:20:32;2.20;;;2.00;;
32639;SDS011;19049;52.524;11.468;2023-05-13T13:22:58;3.50;;;2.10;;
32639;SDS011;19049;52.524;11.468;2023-05-13T13:25:25;4.20;;;2.83;;
32639;SDS011;19049;52.524;11.468;2023-05-13T13:27:53;2.37;;;2.17;;
32639;SDS011;19049;52.524;11.468;2023-05-13T13:30:19;2.60;;;2.20;;
32639;SDS011;19049;52.524;11.468;2023-05-13T13:32:45;4.50;;;2.40;;
32639;SDS011;19049;52.524;11.468;2023-05-13T13:35:11;2.13;;;1.93;;
32639;SDS011;19049;52.524;11.468;2023-05-13T13:37:37;2.63;;;2.17;;
32639;SDS011;19049;52.524;11.468;2023-05-13T13:40:03;3.53;;;2.50;;
32639;SDS011;19049;52.524;11.468;2023-05-13T13:42:29;3.10;;;2.70;;
32639;SDS011;19049;52.524;11.468;2023-05-13T13:44:55;4.60;;;2.57;;
32639;SDS011;19049;52.524;11.468;2023-05-13T13:47:21;2.40;;;2.20;;
32639;SDS011;19049;52.524;11.468;2023-05-13T13:49:47;2.60;;;2.37;;
32639;SDS011;19049;52.524;11.468;2023-05-13T13:52:13;3.87;;;2.37;;
32639;SDS011;19049;52.524;11.468;2023-05-13T13:54:39;6.10;;;2.40;;
32639;SDS011;19049;52.524;11.468;2023-05-13T13:57:04;3.97;;;2.07;;
32639;SDS011;19049;52.524;11.468;2023-05-13T13:59:30;2.50;;;2.23;;
32639;SDS011;19049;52.524;11.468;2023-05-13T14:01:55;4.90;;;2.63;;
32639;SDS011;19049;52.524;11.468;2023-05-13T14:04:21;2.50;;;2.30;;
32639;SDS011;19049;52.524;11.468;2023-05-13T14:06:50;5.17;;;2.83;;
32639;SDS011;19049;52.524;11.468;2023-05-13T14:09:16;3.67;;;2.97;;
32639;SDS011;19049;52.524;11.468;2023-05-13T14:11:42;3.27;;;2.30;;
32639;SDS011;19049;52.524;11.468;2023-05-13T14:14:07;3.03;;;2.17;;
32639;SDS011;19049;52.524;11.468;2023-05-13T14:16:34;3.57;;;2.30;;
32639;SDS011;19049;52.524;11.468;2023-05-13T14:19:00;2.80;;;2.20;;
32639;SDS011;19049;52.524;11.468;2023-05-13T14:21:25;4.57;;;2.10;;
32639;SDS011;19049;52.524;11.468;2023-05-13T14:23:51;2.47;;;2.10;;
32639;SDS011;19049;52.524;11.468;2023-05-13T14:26:16;2.50;;;2.30;;
32639;SDS011;19049;52.524;11.468;2023-05-13T14:28:42;3.93;;;2.40;;
32639;SDS011;19049;52.524;11.468;2023-05-13T14:31:08;3.27;;;2.20;;
32639;SDS011;19049;52.524;11.468;2023-05-13T14:33:34;3.00;;;1.90;;
32639;SDS011;19049;52.524;11.468;2023-05-13T14:36:00;2.30;;;2.10;;
32639;SDS011;19049;52.524;11.468;2023-05-13T14:38:26;2.60;;;2.20;;
32639;SDS011;19049;52.524;11.468;2023-05-13T14:40:52;3.00;;;2.20;;
32639;SDS011;19049;52.524;11.468;2023-05-13T14:43:20;5.40;;;2.27;;
32639;SDS011;19049;52.524;11.468;2023-05-13T14:45:46;3.03;;;1.93;;
32639;SDS011;19049;52.524;11.468;2023-05-13T14:48:12;2.00;;;1.80;;
32639;SDS011;19049;52.524;11.468;2023-05-13T14:50:38;2.47;;;1.93;;
32639;SDS011;19049;52.524;11.468;2023-05-13T14:53:04;2.13;;;1.83;;
32639;SDS011;19049;52.524;11.468;2023-05-13T14:55:29;1.83;;;1.73;;
32639;SDS011;19049;52.524;11.468;2023-05-13T14:57:55;4.43;;;2.10;;
32639;SDS011;19049;52.524;11.468;2023-05-13T15:00:21;2.30;;;1.83;;
32639;SDS011;19049;52.524;11.468;2023-05-13T15:02:46;3.23;;;1.50;;
32639;SDS011;19049;52.524;11.468;2023-05-13T15:05:12;2.73;;;1.87;;
32639;SDS011;19049;52.524;11.468;2023-05-13T15:07:39;2.47;;;2.23;;